sensor_id;sensor_type;location;lat;lon;timestamp;pressure;altitude;pressure_sealevel;temperature;humidity
38786;BME280;24535;45.508;12.252;2023-03-19T00:02:13;101889.91;;;12.11;57.09
38786;BME280;24535;45.508;12.252;2023-03-19T00:04:38;101871.59;;;12.08;56.84
38786;BME280;24535;45.508;12.252;2023-03-19T00:07:04;101862.06;;;12.05;57.11
38786;BME280;24535;45.508;12.252;2023-03-19T00:09:30;101860.34;;;12.04;56.75
38786;BME280;24535;45.508;12.252;2023-03-19T00:11:56;101863.69;;;12.08;57.08
38786;BME280;24535;45.508;12.252;2023-03-19T00:14:21;101862.84;;;12.07;56.93
38786;BME280;24535;45.508;12.252;2023-03-19T00:16:47;101869.66;;;12.11;56.93
38786;BME280;24535;45.508;12.252;2023-03-19T00:19:12;101862.38;;;12.15;56.93
38786;BME280;24535;45.508;12.252;2023-03-19T00:21:39;101869.47;;;12.15;57.18
38786;BME280;24535;45.508;12.252;2023-03-19T00:24:05;101873.84;;;12.16;57.44
38786;BME280;24535;45.508;12.252;2023-03-19T00:26:32;101877.56;;;12.11;57.28
38786;BME280;24535;45.508;12.252;2023-03-19T00:28:58;101875.00;;;12.10;56.70
38786;BME280;24535;45.508;12.252;2023-03-19T00:31:25;101873.47;;;12.06;56.80
38786;BME280;24535;45.508;12.252;2023-03-19T00:33:51;101883.28;;;12.04;57.44
38786;BME280;24535;45.508;12.252;2023-03-19T00:36:17;101879.00;;;12.01;57.35
38786;BME280;24535;45.508;12.252;2023-03-19T00:38:44;101877.31;;;12.00;56.91
38786;BME280;24535;45.508;12.252;2023-03-19T00:41:16;101870.47;;;11.96;57.51
38786;BME280;24535;45.508;12.252;2023-03-19T00:43:43;101865.19;;;11.96;57.00
38786;BME280;24535;45.508;12.252;2023-03-19T00:46:09;101858.38;;;11.92;57.17
38786;BME280;24535;45.508;12.252;2023-03-19T00:48:34;101860.19;;;11.92;56.86
38786;BME280;24535;45.508;12.252;2023-03-19T00:51:04;101865.03;;;11.83;57.23
38786;BME280;24535;45.508;12.252;2023-03-19T00:53:31;101876.56;;;11.81;57.45
38786;BME280;24535;45.508;12.252;2023-03-19T00:55:59;101874.06;;;11.78;57.05
38786;BME280;24535;45.508;12.252;2023-03-19T00:58:25;101866.50;;;11.72;56.92
38786;BME280;24535;45.508;12.252;2023-03-19T01:00:54;101870.22;;;11.68;56.85
38786;BME280;24535;45.508;12.252;2023-03-19T01:03:20;101867.84;;;11.63;57.46
38786;BME280;24535;45.508;12.252;2023-03-19T01:05:49;101866.31;;;11.59;57.63
38786;BME280;24535;45.508;12.252;2023-03-19T01:08:18;101871.63;;;11.57;57.13
38786;BME280;24535;45.508;12.252;2023-03-19T01:10:52;101871.78;;;11.54;57.63
38786;BME280;24535;45.508;12.252;2023-03-19T01:13:18;101862.44;;;11.49;57.30
38786;BME280;24535;45.508;12.252;2023-03-19T01:15:43;101868.66;;;11.48;56.94
38786;BME280;24535;45.508;12.252;2023-03-19T01:18:10;101860.03;;;11.44;57.64
38786;BME280;24535;45.508;12.252;2023-03-19T01:20:38;101860.19;;;11.41;58.11
38786;BME280;24535;45.508;12.252;2023-03-19T01:23:04;101865.63;;;11.38;57.70
38786;BME280;24535;45.508;12.252;2023-03-19T01:25:30;101862.97;;;11.38;57.39
38786;BME280;24535;45.508;12.252;2023-03-19T01:27:56;101853.38;;;11.37;57.74
38786;BME280;24535;45.508;12.252;2023-03-19T01:30:22;101850.81;;;11.35;57.31
38786;BME280;24535;45.508;12.252;2023-03-19T01:32:48;101842.13;;;11.33;57.69
38786;BME280;24535;45.508;12.252;2023-03-19T01:35:14;101846.63;;;11.31;57.80
38786;BME280;24535;45.508;12.252;2023-03-19T01:37:40;101843.16;;;11.31;57.47
38786;BME280;24535;45.508;12.252;2023-03-19T01:40:06;101848.44;;;11.31;57.74
38786;BME280;24535;45.508;12.252;2023-03-19T01:42:51;101848.44;;;11.31;57.70
38786;BME280;24535;45.508;12.252;2023-03-19T01:45:49;101838.78;;;11.30;58.24
38786;BME280;24535;45.508;12.252;2023-03-19T01:48:43;101820.41;;;11.28;57.85
38786;BME280;24535;45.508;12.252;2023-03-19T01:51:21;101817.88;;;11.27;57.56
38786;BME280;24535;45.508;12.252;2023-03-19T01:54:26;101827.56;;;11.26;58.54
38786;BME280;24535;45.508;12.252;2023-03-19T01:56:58;101824.28;;;11.21;57.81
38786;BME280;24535;45.508;12.252;2023-03-19T02:00:08;101825.22;;;11.20;57.71
38786;BME280;24535;45.508;12.252;2023-03-19T02:02:34;101826.22;;;11.18;57.70
38786;BME280;24535;45.508;12.252;2023-03-19T02:05:12;101823.78;;;11.14;57.80
38786;BME280;24535;45.508;12.252;2023-03-19T02:07:51;101817.88;;;11.09;57.61
38786;BME280;24535;45.508;12.252;2023-03-19T02:10:18;101817.88;;;11.09;57.62
38786;BME280;24535;45.508;12.252;2023-03-19T02:12:45;101818.94;;;11.05;57.27
38786;BME280;24535;45.508;12.252;2023-03-19T02:15:11;101818.94;;;11.05;57.83
38786;BME280;24535;45.508;12.252;2023-03-19T02:17:46;101827.94;;;11.01;57.75
38786;BME280;24535;45.508;12.252;2023-03-19T02:20:31;101827.19;;;10.99;57.75
38786;BME280;24535;45.508;12.252;2023-03-19T02:28:09;101815.25;;;10.92;57.63
38786;BME280;24535;45.508;12.252;2023-03-19T02:30:43;101820.38;;;10.95;58.49
38786;BME280;24535;45.508;12.252;2023-03-19T02:33:13;101823.94;;;10.94;57.75
38786;BME280;24535;45.508;12.252;2023-03-19T02:35:39;101829.38;;;10.91;57.53
38786;BME280;24535;45.508;12.252;2023-03-19T02:38:10;101819.75;;;10.90;57.87
38786;BME280;24535;45.508;12.252;2023-03-19T02:44:03;101827.97;;;10.84;57.75
38786;BME280;24535;45.508;12.252;2023-03-19T02:46:35;101824.47;;;10.83;58.43
38786;BME280;24535;45.508;12.252;2023-03-19T02:49:00;101810.47;;;10.83;58.25
38786;BME280;24535;45.508;12.252;2023-03-19T02:51:26;101826.28;;;10.83;58.45
38786;BME280;24535;45.508;12.252;2023-03-19T02:53:52;101828.91;;;10.83;58.22
38786;BME280;24535;45.508;12.252;2023-03-19T02:56:17;101827.97;;;10.84;58.04
38786;BME280;24535;45.508;12.252;2023-03-19T02:58:52;101821.75;;;10.85;58.44
38786;BME280;24535;45.508;12.252;2023-03-19T03:01:17;101841.06;;;10.85;58.56
38786;BME280;24535;45.508;12.252;2023-03-19T03:03:43;101835.78;;;10.85;58.75
38786;BME280;24535;45.508;12.252;2023-03-19T03:06:20;101835.59;;;10.90;58.63
38786;BME280;24535;45.508;12.252;2023-03-19T03:08:46;101838.22;;;10.90;58.72
38786;BME280;24535;45.508;12.252;2023-03-19T03:11:11;101838.88;;;10.94;59.12
38786;BME280;24535;45.508;12.252;2023-03-19T03:13:37;101839.78;;;10.94;58.96
38786;BME280;24535;45.508;12.252;2023-03-19T03:16:02;101843.16;;;10.96;58.52
38786;BME280;24535;45.508;12.252;2023-03-19T03:18:28;101852.78;;;10.97;58.83
38786;BME280;24535;45.508;12.252;2023-03-19T03:20:54;101859.81;;;10.97;58.84
38786;BME280;24535;45.508;12.252;2023-03-19T03:23:22;101858.84;;;10.99;58.65
38786;BME280;24535;45.508;12.252;2023-03-19T03:25:49;101871.06;;;11.00;59.00
38786;BME280;24535;45.508;12.252;2023-03-19T03:28:15;101872.78;;;11.01;58.34
38786;BME280;24535;45.508;12.252;2023-03-19T03:30:42;101857.91;;;11.00;58.57
38786;BME280;24535;45.508;12.252;2023-03-19T03:33:07;101870.09;;;11.03;58.71
38786;BME280;24535;45.508;12.252;2023-03-19T03:35:33;101866.59;;;11.02;58.56
38786;BME280;24535;45.508;12.252;2023-03-19T03:37:58;101868.28;;;11.03;58.62
38786;BME280;24535;45.508;12.252;2023-03-19T03:40:23;101861.94;;;11.07;58.77
38786;BME280;24535;45.508;12.252;2023-03-19T03:42:49;101860.91;;;11.10;58.61
38786;BME280;24535;45.508;12.252;2023-03-19T03:45:15;101857.50;;;11.08;58.65
38786;BME280;24535;45.508;12.252;2023-03-19T03:47:41;101871.53;;;11.08;58.24
38786;BME280;24535;45.508;12.252;2023-03-19T03:50:07;101864.56;;;11.07;58.59
38786;BME280;24535;45.508;12.252;2023-03-19T03:52:35;101869.00;;;11.07;58.32
38786;BME280;24535;45.508;12.252;2023-03-19T03:55:01;101866.41;;;11.05;58.43
38786;BME280;24535;45.508;12.252;2023-03-19T03:57:26;101870.94;;;11.03;58.27
38786;BME280;24535;45.508;12.252;2023-03-19T03:59:55;101865.66;;;11.03;58.88
38786;BME280;24535;45.508;12.252;2023-03-19T04:02:21;101875.25;;;11.04;58.70
38786;BME280;24535;45.508;12.252;2023-03-19T04:04:46;101879.59;;;11.05;59.09
38786;BME280;24535;45.508;12.252;2023-03-19T04:07:18;101881.34;;;11.06;59.15
38786;BME280;24535;45.508;12.252;2023-03-19T04:09:43;101870.00;;;11.04;58.98
38786;BME280;24535;45.508;12.252;2023-03-19T04:12:11;101874.31;;;11.05;58.86
38786;BME280;24535;45.508;12.252;2023-03-19T04:14:36;101869.84;;;11.07;59.00
38786;BME280;24535;45.508;12.252;2023-03-19T04:17:02;101869.00;;;11.07;58.96
38786;BME280;24535;45.508;12.252;2023-03-19T04:19:29;101873.34;;;11.08;58.91
38786;BME280;24535;45.508;12.252;2023-03-19T04:21:59;101868.16;;;11.06;59.23
38786;BME280;24535;45.508;12.252;2023-03-19T04:24:25;101877.75;;;11.07;59.15
38786;BME280;24535;45.508;12.252;2023-03-19T04:27:00;101870.78;;;11.06;59.19
38786;BME280;24535;45.508;12.252;2023-03-19T04:29:48;101869.00;;;11.07;59.13
38786;BME280;24535;45.508;12.252;2023-03-19T04:32:14;101880.41;;;11.07;59.20
38786;BME280;24535;45.508;12.252;2023-03-19T04:34:40;101888.31;;;11.07;59.07
38786;BME280;24535;45.508;12.252;2023-03-19T04:37:06;101880.53;;;11.04;59.01
38786;BME280;24535;45.508;12.252;2023-03-19T04:39:37;101872.53;;;11.06;58.90
38786;BME280;24535;45.508;12.252;2023-03-19T04:42:03;101884.72;;;11.08;59.01
38786;BME280;24535;45.508;12.252;2023-03-19T04:44:29;101879.53;;;11.07;59.02
38786;BME280;24535;45.508;12.252;2023-03-19T04:46:55;101878.75;;;11.05;59.03
38786;BME280;24535;45.508;12.252;2023-03-19T04:49:21;101882.25;;;11.05;59.19
38786;BME280;24535;45.508;12.252;2023-03-19T04:51:49;101874.50;;;11.02;58.86
38786;BME280;24535;45.508;12.252;2023-03-19T04:54:15;101874.50;;;11.02;58.76
38786;BME280;24535;45.508;12.252;2023-03-19T04:56:46;101872.63;;;11.04;59.12
38786;BME280;24535;45.508;12.252;2023-03-19T04:59:15;101867.34;;;11.04;59.20
38786;BME280;24535;45.508;12.252;2023-03-19T05:01:41;101862.00;;;11.06;58.67
38786;BME280;24535;45.508;12.252;2023-03-19T05:04:07;101865.34;;;11.09;59.19
38786;BME280;24535;45.508;12.252;2023-03-19T05:06:36;101864.44;;;11.10;58.91
38786;BME280;24535;45.508;12.252;2023-03-19T05:09:03;101865.50;;;11.06;59.13
38786;BME280;24535;45.508;12.252;2023-03-19T05:11:29;101881.94;;;11.11;58.54
38786;BME280;24535;45.508;12.252;2023-03-19T05:13:54;101876.72;;;11.10;58.55
38786;BME280;24535;45.508;12.252;2023-03-19T05:16:20;101883.03;;;11.07;58.54
38786;BME280;24535;45.508;12.252;2023-03-19T05:18:45;101879.53;;;11.07;58.13
38786;BME280;24535;45.508;12.252;2023-03-19T05:21:12;101888.06;;;11.12;58.39
38786;BME280;24535;45.508;12.252;2023-03-19T05:23:39;101894.13;;;11.14;58.27
38786;BME280;24535;45.508;12.252;2023-03-19T05:26:04;101896.06;;;11.10;58.41
38786;BME280;24535;45.508;12.252;2023-03-19T05:28:48;101898.63;;;11.12;58.55
38786;BME280;24535;45.508;12.252;2023-03-19T05:31:14;101900.41;;;11.11;57.97
38786;BME280;24535;45.508;12.252;2023-03-19T05:33:39;101909.16;;;11.12;57.81
38786;BME280;24535;45.508;12.252;2023-03-19T05:36:11;101918.00;;;11.11;58.09
38786;BME280;24535;45.508;12.252;2023-03-19T05:38:43;101930.19;;;11.13;58.45
38786;BME280;24535;45.508;12.252;2023-03-19T05:41:08;101929.97;;;11.18;58.62
38786;BME280;24535;45.508;12.252;2023-03-19T05:43:34;101929.03;;;11.19;58.01
38786;BME280;24535;45.508;12.252;2023-03-19T05:45:59;101938.34;;;11.26;58.36
38786;BME280;24535;45.508;12.252;2023-03-19T05:48:26;101939.13;;;11.28;57.82
38786;BME280;24535;45.508;12.252;2023-03-19T05:50:51;101943.53;;;11.28;57.85
38786;BME280;24535;45.508;12.252;2023-03-19T05:53:17;101946.25;;;11.26;57.97
38786;BME280;24535;45.508;12.252;2023-03-19T05:55:49;101944.63;;;11.24;57.77
38786;BME280;24535;45.508;12.252;2023-03-19T05:58:20;101949.81;;;11.25;57.54
38786;BME280;24535;45.508;12.252;2023-03-19T06:00:49;101955.94;;;11.26;57.61
38786;BME280;24535;45.508;12.252;2023-03-19T06:03:21;101951.34;;;11.29;57.70
38786;BME280;24535;45.508;12.252;2023-03-19T06:05:53;101950.38;;;11.32;57.54
38786;BME280;24535;45.508;12.252;2023-03-19T06:08:25;101953.94;;;11.31;57.68
38786;BME280;24535;45.508;12.252;2023-03-19T06:10:57;101960.81;;;11.33;57.68
38786;BME280;24535;45.508;12.252;2023-03-19T06:13:22;101955.63;;;11.32;57.73
38786;BME280;24535;45.508;12.252;2023-03-19T06:15:48;101967.66;;;11.37;57.29
38786;BME280;24535;45.508;12.252;2023-03-19T06:18:15;101968.50;;;11.38;57.26
38786;BME280;24535;45.508;12.252;2023-03-19T06:20:47;101971.00;;;11.41;57.34
38786;BME280;24535;45.508;12.252;2023-03-19T06:23:12;101966.56;;;11.42;57.55
38786;BME280;24535;45.508;12.252;2023-03-19T06:25:38;101962.94;;;11.44;57.14
38786;BME280;24535;45.508;12.252;2023-03-19T06:28:07;101965.47;;;11.46;57.00
38786;BME280;24535;45.508;12.252;2023-03-19T06:30:54;101967.81;;;11.52;57.33
38786;BME280;24535;45.508;12.252;2023-03-19T06:33:20;101982.47;;;11.57;57.38
38786;BME280;24535;45.508;12.252;2023-03-19T06:35:47;101974.88;;;11.69;57.76
38786;BME280;24535;45.508;12.252;2023-03-19T06:38:13;101985.66;;;11.81;57.89
38786;BME280;24535;45.508;12.252;2023-03-19T06:40:47;101977.47;;;11.87;58.08
38786;BME280;24535;45.508;12.252;2023-03-19T06:43:19;101976.88;;;11.98;57.60
38786;BME280;24535;45.508;12.252;2023-03-19T06:45:44;101967.09;;;12.00;57.12
38786;BME280;24535;45.508;12.252;2023-03-19T06:48:11;101977.50;;;12.03;56.88
38786;BME280;24535;45.508;12.252;2023-03-19T06:50:36;101979.06;;;12.07;57.07
38786;BME280;24535;45.508;12.252;2023-03-19T06:53:02;101975.22;;;12.13;56.53
38786;BME280;24535;45.508;12.252;2023-03-19T06:55:27;101980.25;;;12.18;56.89
38786;BME280;24535;45.508;12.252;2023-03-19T06:58:01;101972.84;;;12.24;57.12
38786;BME280;24535;45.508;12.252;2023-03-19T07:00:38;101976.19;;;12.28;56.52
38786;BME280;24535;45.508;12.252;2023-03-19T07:05:41;101992.38;;;12.37;55.98
38786;BME280;24535;45.508;12.252;2023-03-19T07:08:07;101977.38;;;12.38;56.62
38786;BME280;24535;45.508;12.252;2023-03-19T07:10:37;101984.22;;;12.42;56.18
38786;BME280;24535;45.508;12.252;2023-03-19T07:13:11;101981.50;;;12.44;56.54
38786;BME280;24535;45.508;12.252;2023-03-19T07:15:37;101988.06;;;12.52;56.66
38786;BME280;24535;45.508;12.252;2023-03-19T07:18:03;101993.59;;;12.63;56.34
38786;BME280;24535;45.508;12.252;2023-03-19T07:20:37;101982.78;;;12.68;56.55
38786;BME280;24535;45.508;12.252;2023-03-19T07:23:14;101987.88;;;12.71;56.46
38786;BME280;24535;45.508;12.252;2023-03-19T07:25:45;101990.19;;;12.77;56.73
38786;BME280;24535;45.508;12.252;2023-03-19T07:28:21;101984.06;;;12.77;57.06
38786;BME280;24535;45.508;12.252;2023-03-19T07:30:58;101983.13;;;12.78;56.97
38786;BME280;24535;45.508;12.252;2023-03-19T07:33:33;101986.34;;;12.83;56.71
38786;BME280;24535;45.508;12.252;2023-03-19T07:35:58;101995.91;;;12.85;57.14
38786;BME280;24535;45.508;12.252;2023-03-19T07:38:23;102002.03;;;12.86;56.53
38786;BME280;24535;45.508;12.252;2023-03-19T07:40:49;101998.28;;;12.90;57.17
38786;BME280;24535;45.508;12.252;2023-03-19T07:43:18;101985.75;;;12.94;57.32
38786;BME280;24535;45.508;12.252;2023-03-19T07:45:43;101997.59;;;13.02;57.58
38786;BME280;24535;45.508;12.252;2023-03-19T07:48:09;102002.34;;;13.11;57.65
38786;BME280;24535;45.508;12.252;2023-03-19T07:50:35;101998.41;;;13.19;57.54
38786;BME280;24535;45.508;12.252;2023-03-19T07:53:09;102002.19;;;13.30;56.67
38786;BME280;24535;45.508;12.252;2023-03-19T07:55:35;102005.25;;;13.39;57.14
38786;BME280;24535;45.508;12.252;2023-03-19T07:58:02;102005.53;;;13.48;57.31
38786;BME280;24535;45.508;12.252;2023-03-19T08:00:27;102007.84;;;13.54;56.86
38786;BME280;24535;45.508;12.252;2023-03-19T08:02:53;101999.63;;;13.59;57.02
38786;BME280;24535;45.508;12.252;2023-03-19T08:05:18;102003.53;;;13.68;57.51
38786;BME280;24535;45.508;12.252;2023-03-19T08:07:44;102010.06;;;13.76;57.57
38786;BME280;24535;45.508;12.252;2023-03-19T08:10:10;102013.78;;;13.88;56.43
38786;BME280;24535;45.508;12.252;2023-03-19T08:12:36;102005.38;;;13.96;56.72
38786;BME280;24535;45.508;12.252;2023-03-19T08:15:06;102006.41;;;14.07;56.71
38786;BME280;24535;45.508;12.252;2023-03-19T08:17:32;102011.81;;;14.20;56.38
38786;BME280;24535;45.508;12.252;2023-03-19T08:20:10;102012.75;;;14.33;56.15
38786;BME280;24535;45.508;12.252;2023-03-19T08:22:36;102022.50;;;14.47;56.68
38786;BME280;24535;45.508;12.252;2023-03-19T08:25:03;102032.28;;;14.61;56.11
38786;BME280;24535;45.508;12.252;2023-03-19T08:27:32;102031.31;;;14.76;56.58
38786;BME280;24535;45.508;12.252;2023-03-19T08:30:05;102034.69;;;14.93;55.55
38786;BME280;24535;45.508;12.252;2023-03-19T08:32:31;102036.66;;;15.03;55.40
38786;BME280;24535;45.508;12.252;2023-03-19T08:34:56;102035.84;;;15.16;55.56
38786;BME280;24535;45.508;12.252;2023-03-19T08:50:05;102030.41;;;15.44;54.35
38786;BME280;24535;45.508;12.252;2023-03-19T08:52:30;102030.19;;;15.47;54.53
38786;BME280;24535;45.508;12.252;2023-03-19T08:54:56;102027.47;;;15.49;54.60
38786;BME280;24535;45.508;12.252;2023-03-19T08:57:21;102031.81;;;15.50;54.95
38786;BME280;24535;45.508;12.252;2023-03-19T08:59:53;102031.81;;;15.50;54.06
38786;BME280;24535;45.508;12.252;2023-03-19T09:02:18;102043.06;;;15.53;54.45
38786;BME280;24535;45.508;12.252;2023-03-19T09:04:44;102036.91;;;15.53;54.79
38786;BME280;24535;45.508;12.252;2023-03-19T09:07:10;102043.41;;;15.62;54.76
38786;BME280;24535;45.508;12.252;2023-03-19T09:09:41;102059.84;;;15.68;54.57
38786;BME280;24535;45.508;12.252;2023-03-19T09:12:08;102043.78;;;15.70;54.98
38786;BME280;24535;45.508;12.252;2023-03-19T09:14:35;102047.94;;;15.74;54.69
38786;BME280;24535;45.508;12.252;2023-03-19T09:17:01;102040.59;;;15.77;54.97
38786;BME280;24535;45.508;12.252;2023-03-19T09:19:36;102050.06;;;15.81;53.71
38786;BME280;24535;45.508;12.252;2023-03-19T09:22:28;102045.09;;;15.90;52.92
38786;BME280;24535;45.508;12.252;2023-03-19T09:24:53;102042.00;;;15.96;54.31
38786;BME280;24535;45.508;12.252;2023-03-19T09:27:19;102049.44;;;16.03;54.32
38786;BME280;24535;45.508;12.252;2023-03-19T09:29:45;102048.84;;;16.13;54.23
38786;BME280;24535;45.508;12.252;2023-03-19T09:32:10;102048.91;;;16.24;54.40
38786;BME280;24535;45.508;12.252;2023-03-19T09:34:36;102056.03;;;16.36;54.41
38786;BME280;24535;45.508;12.252;2023-03-19T09:37:02;102046.34;;;16.48;54.01
38786;BME280;24535;45.508;12.252;2023-03-19T09:39:27;102062.53;;;16.58;53.79
38786;BME280;24535;45.508;12.252;2023-03-19T09:44:43;102054.22;;;16.75;52.14
38786;BME280;24535;45.508;12.252;2023-03-19T09:47:29;102054.72;;;16.80;50.62
38786;BME280;24535;45.508;12.252;2023-03-19T09:49:59;102056.19;;;16.84;52.31
38786;BME280;24535;45.508;12.252;2023-03-19T09:55:49;102054.34;;;16.97;50.70
38786;BME280;24535;45.508;12.252;2023-03-19T09:58:40;102050.81;;;17.10;51.65
38786;BME280;24535;45.508;12.252;2023-03-19T10:07:24;102047.09;;;17.47;51.74
38786;BME280;24535;45.508;12.252;2023-03-19T10:15:41;102044.13;;;17.87;50.70
38786;BME280;24535;45.508;12.252;2023-03-19T10:18:17;102039.75;;;17.97;50.00
38786;BME280;24535;45.508;12.252;2023-03-19T10:23:42;102042.34;;;18.21;49.44
38786;BME280;24535;45.508;12.252;2023-03-19T10:26:13;102034.09;;;18.24;48.64
38786;BME280;24535;45.508;12.252;2023-03-19T10:28:45;102039.06;;;18.29;47.95
38786;BME280;24535;45.508;12.252;2023-03-19T10:31:32;102035.44;;;18.30;47.41
38786;BME280;24535;45.508;12.252;2023-03-19T10:34:42;102032.75;;;18.30;45.59
38786;BME280;24535;45.508;12.252;2023-03-19T10:39:43;102025.84;;;18.16;46.64
38786;BME280;24535;45.508;12.252;2023-03-19T10:48:04;102018.16;;;17.89;47.06
38786;BME280;24535;45.508;12.252;2023-03-19T10:50:37;102014.41;;;17.81;47.49
38786;BME280;24535;45.508;12.252;2023-03-19T10:53:38;102010.59;;;17.72;45.79
38786;BME280;24535;45.508;12.252;2023-03-19T10:56:15;102013.84;;;17.64;46.54
38786;BME280;24535;45.508;12.252;2023-03-19T10:59:36;102007.41;;;17.55;46.50
38786;BME280;24535;45.508;12.252;2023-03-19T11:02:00;102003.28;;;17.51;46.89
38786;BME280;24535;45.508;12.252;2023-03-19T11:04:26;102001.19;;;17.44;46.84
38786;BME280;24535;45.508;12.252;2023-03-19T11:06:55;102004.94;;;17.41;46.27
38786;BME280;24535;45.508;12.252;2023-03-19T11:09:36;102005.19;;;17.38;46.49
38786;BME280;24535;45.508;12.252;2023-03-19T11:14:40;102001.28;;;17.31;46.58
38786;BME280;24535;45.508;12.252;2023-03-19T11:17:45;101995.31;;;17.27;47.03
38786;BME280;24535;45.508;12.252;2023-03-19T11:20:42;101995.53;;;17.24;47.34
38786;BME280;24535;45.508;12.252;2023-03-19T11:23:15;101996.66;;;17.22;47.48
38786;BME280;24535;45.508;12.252;2023-03-19T11:25:52;101996.88;;;17.19;46.87
38786;BME280;24535;45.508;12.252;2023-03-19T11:28:23;101992.59;;;17.16;47.50
38786;BME280;24535;45.508;12.252;2023-03-19T11:35:02;101981.59;;;17.10;48.40
38786;BME280;24535;45.508;12.252;2023-03-19T11:40:13;101979.84;;;17.09;48.19
38786;BME280;24535;45.508;12.252;2023-03-19T11:51:06;101970.31;;;17.06;48.09
38786;BME280;24535;45.508;12.252;2023-03-19T11:56:53;101957.56;;;16.98;48.06
38786;BME280;24535;45.508;12.252;2023-03-19T12:25:33;101941.19;;;16.92;48.20
38786;BME280;24535;45.508;12.252;2023-03-19T12:28:12;101937.81;;;16.90;47.28
38786;BME280;24535;45.508;12.252;2023-03-19T12:35:55;101940.69;;;16.87;47.52
38786;BME280;24535;45.508;12.252;2023-03-19T12:38:58;101935.47;;;16.85;47.60
38786;BME280;24535;45.508;12.252;2023-03-19T12:41:27;101937.19;;;16.86;48.35
38786;BME280;24535;45.508;12.252;2023-03-19T12:44:10;101935.34;;;16.87;47.80
38786;BME280;24535;45.508;12.252;2023-03-19T12:49:34;101921.94;;;16.88;47.81
38786;BME280;24535;45.508;12.252;2023-03-19T12:54:43;101920.00;;;16.90;47.80
38786;BME280;24535;45.508;12.252;2023-03-19T12:57:29;101925.44;;;16.89;47.91
38786;BME280;24535;45.508;12.252;2023-03-19T13:06:09;101911.06;;;16.91;47.53
38786;BME280;24535;45.508;12.252;2023-03-19T13:08:47;101912.13;;;16.89;47.70
38786;BME280;24535;45.508;12.252;2023-03-19T13:14:21;101901.47;;;16.89;48.08
38786;BME280;24535;45.508;12.252;2023-03-19T13:17:18;101887.44;;;16.87;47.70
38786;BME280;24535;45.508;12.252;2023-03-19T13:19:48;101898.59;;;16.92;48.06
38786;BME280;24535;45.508;12.252;2023-03-19T13:22:22;101899.56;;;16.91;47.79
38786;BME280;24535;45.508;12.252;2023-03-19T13:24:59;101887.31;;;16.88;47.81
38786;BME280;24535;45.508;12.252;2023-03-19T13:27:31;101894.25;;;16.91;48.05
38786;BME280;24535;45.508;12.252;2023-03-19T13:32:52;101889.97;;;16.88;47.57
38786;BME280;24535;45.508;12.252;2023-03-19T13:35:38;101890.84;;;16.89;47.95
38786;BME280;24535;45.508;12.252;2023-03-19T13:38:25;101889.00;;;16.89;47.91
38786;BME280;24535;45.508;12.252;2023-03-19T13:40:54;101890.72;;;16.90;47.60
38786;BME280;24535;45.508;12.252;2023-03-19T13:43:39;101887.22;;;16.90;48.23
38786;BME280;24535;45.508;12.252;2023-03-19T13:59:43;101869.88;;;16.84;47.53
38786;BME280;24535;45.508;12.252;2023-03-19T14:04:58;101869.16;;;16.82;47.72
38786;BME280;24535;45.508;12.252;2023-03-19T14:07:35;101873.66;;;16.82;47.48
38786;BME280;24535;45.508;12.252;2023-03-19T14:12:35;101863.72;;;16.84;46.69
38786;BME280;24535;45.508;12.252;2023-03-19T14:15:13;101860.22;;;16.83;47.16
38786;BME280;24535;45.508;12.252;2023-03-19T14:34:00;101844.81;;;16.75;45.56
38786;BME280;24535;45.508;12.252;2023-03-19T14:36:26;101838.97;;;16.70;45.82
38786;BME280;24535;45.508;12.252;2023-03-19T14:39:20;101840.56;;;16.73;45.45
38786;BME280;24535;45.508;12.252;2023-03-19T14:41:49;101831.09;;;16.69;45.71
38786;BME280;24535;45.508;12.252;2023-03-19T14:44:38;101834.50;;;16.71;44.92
38786;BME280;24535;45.508;12.252;2023-03-19T14:52:22;101832.59;;;16.73;45.39
38786;BME280;24535;45.508;12.252;2023-03-19T14:57:21;101836.97;;;16.74;46.09
38786;BME280;24535;45.508;12.252;2023-03-19T14:59:49;101829.91;;;16.73;45.39
38786;BME280;24535;45.508;12.252;2023-03-19T15:02:32;101838.53;;;16.76;45.19
38786;BME280;24535;45.508;12.252;2023-03-19T15:04:59;101835.03;;;16.76;44.62
38786;BME280;24535;45.508;12.252;2023-03-19T15:07:33;101836.00;;;16.75;45.18
38786;BME280;24535;45.508;12.252;2023-03-19T15:10:04;101830.66;;;16.75;44.82
38786;BME280;24535;45.508;12.252;2023-03-19T15:12:38;101832.47;;;16.74;44.68
38786;BME280;24535;45.508;12.252;2023-03-19T15:15:31;101840.34;;;16.76;45.41
38786;BME280;24535;45.508;12.252;2023-03-19T15:18:10;101843.97;;;16.75;45.09
38786;BME280;24535;45.508;12.252;2023-03-19T15:20:42;101844.94;;;16.74;45.16
38786;BME280;24535;45.508;12.252;2023-03-19T15:23:10;101839.81;;;16.71;45.30
38786;BME280;24535;45.508;12.252;2023-03-19T15:25:51;101846.09;;;16.70;45.80
38786;BME280;24535;45.508;12.252;2023-03-19T15:28:21;101844.72;;;16.64;45.49
38786;BME280;24535;45.508;12.252;2023-03-19T15:30:57;101853.56;;;16.65;46.18
38786;BME280;24535;45.508;12.252;2023-03-19T15:33:30;101848.50;;;16.62;45.93
38786;BME280;24535;45.508;12.252;2023-03-19T15:38:41;101848.72;;;16.59;46.65
38786;BME280;24535;45.508;12.252;2023-03-19T15:41:09;101848.31;;;16.52;47.05
38786;BME280;24535;45.508;12.252;2023-03-19T15:43:37;101850.03;;;16.53;47.52
38786;BME280;24535;45.508;12.252;2023-03-19T15:46:12;101849.50;;;16.48;47.58
38786;BME280;24535;45.508;12.252;2023-03-19T15:48:52;101846.13;;;16.46;47.02